sensor_id;sensor_type;location;lat;lon;timestamp;temperature;humidity
5848;DHT22;8756;49.29324300;8.70599800;2023-02-24T00:01:57;9.10;99.90
5848;DHT22;8756;49.29324300;8.70599800;2023-02-24T00:04:30;9.10;99.90
5848;DHT22;8756;49.29324300;8.70599800;2023-02-24T00:06:57;9.10;99.90
5848;DHT22;8756;49.29324300;8.70599800;2023-02-24T00:09:26;9.10;99.90
5848;DHT22;8756;49.29324300;8.70599800;2023-02-24T00:11:57;9.00;99.90
5848;DHT22;8756;49.29324300;8.70599800;2023-02-24T00:14:28;9.00;99.90
5848;DHT22;8756;49.29324300;8.70599800;2023-02-24T00:16:55;9.00;99.90
5848;DHT22;8756;49.29324300;8.70599800;2023-02-24T00:19:24;9.00;99.90
5848;DHT22;8756;49.29324300;8.70599800;2023-02-24T00:21:52;8.90;99.90
5848;DHT22;8756;49.29324300;8.70599800;2023-02-24T00:24:21;8.90;99.90
5848;DHT22;8756;49.29324300;8.70599800;2023-02-24T00:26:54;8.90;99.90
5848;DHT22;8756;49.29324300;8.70599800;2023-02-24T00:29:22;8.90;99.90
5848;DHT22;8756;49.29324300;8.70599800;2023-02-24T00:31:52;8.80;99.90
5848;DHT22;8756;49.29324300;8.70599800;2023-02-24T00:34:29;8.80;99.90
5848;DHT22;8756;49.29324300;8.70599800;2023-02-24T00:36:56;8.80;99.90
5848;DHT22;8756;49.29324300;8.70599800;2023-02-24T00:39:22;8.80;99.90
5848;DHT22;8756;49.29324300;8.70599800;2023-02-24T00:41:52;8.80;99.90
5848;DHT22;8756;49.29324300;8.70599800;2023-02-24T00:44:22;8.80;99.90
5848;DHT22;8756;49.29324300;8.70599800;2023-02-24T00:46:48;8.80;99.90
5848;DHT22;8756;49.29324300;8.70599800;2023-02-24T00:49:17;8.80;99.90
5848;DHT22;8756;49.29324300;8.70599800;2023-02-24T00:51:46;8.80;99.90
5848;DHT22;8756;49.29324300;8.70599800;2023-02-24T00:54:13;8.80;99.90
5848;DHT22;8756;49.29324300;8.70599800;2023-02-24T00:56:46;8.80;99.90
5848;DHT22;8756;49.29324300;8.70599800;2023-02-24T00:59:14;8.80;99.90
5848;DHT22;8756;49.29324300;8.70599800;2023-02-24T01:01:44;8.80;99.90
5848;DHT22;8756;49.29324300;8.70599800;2023-02-24T01:04:11;8.80;99.90
5848;DHT22;8756;49.29324300;8.70599800;2023-02-24T01:06:50;8.80;99.90
5848;DHT22;8756;49.29324300;8.70599800;2023-02-24T01:09:26;8.70;99.90
5848;DHT22;8756;49.29324300;8.70599800;2023-02-24T01:11:54;8.80;99.90
5848;DHT22;8756;49.29324300;8.70599800;2023-02-24T01:14:47;8.80;99.90
5848;DHT22;8756;49.29324300;8.70599800;2023-02-24T01:17:16;8.70;99.90
5848;DHT22;8756;49.29324300;8.70599800;2023-02-24T01:19:43;8.80;99.90
5848;DHT22;8756;49.29324300;8.70599800;2023-02-24T01:22:12;8.70;99.90
5848;DHT22;8756;49.29324300;8.70599800;2023-02-24T01:24:40;8.70;99.90
5848;DHT22;8756;49.29324300;8.70599800;2023-02-24T01:27:09;8.70;99.90
5848;DHT22;8756;49.29324300;8.70599800;2023-02-24T01:29:38;8.70;99.90
5848;DHT22;8756;49.29324300;8.70599800;2023-02-24T01:32:05;8.70;99.90
5848;DHT22;8756;49.29324300;8.70599800;2023-02-24T01:34:31;8.70;99.90
5848;DHT22;8756;49.29324300;8.70599800;2023-02-24T01:36:59;8.70;99.90
5848;DHT22;8756;49.29324300;8.70599800;2023-02-24T01:39:24;8.60;99.90
5848;DHT22;8756;49.29324300;8.70599800;2023-02-24T01:41:53;8.70;99.90
5848;DHT22;8756;49.29324300;8.70599800;2023-02-24T01:46:52;8.60;99.90
5848;DHT22;8756;49.29324300;8.70599800;2023-02-24T01:49:27;8.60;99.90
5848;DHT22;8756;49.29324300;8.70599800;2023-02-24T01:54:41;8.50;99.90
5848;DHT22;8756;49.29324300;8.70599800;2023-02-24T01:57:18;8.50;99.90
5848;DHT22;8756;49.29324300;8.70599800;2023-02-24T01:59:47;8.40;99.90
5848;DHT22;8756;49.29324300;8.70599800;2023-02-24T02:02:15;8.40;99.90
5848;DHT22;8756;49.29324300;8.70599800;2023-02-24T02:04:54;8.40;99.90
5848;DHT22;8756;49.29324300;8.70599800;2023-02-24T02:07:23;8.40;99.90
5848;DHT22;8756;49.29324300;8.70599800;2023-02-24T02:09:51;8.40;99.90
5848;DHT22;8756;49.29324300;8.70599800;2023-02-24T02:12:25;8.40;99.90
5848;DHT22;8756;49.29324300;8.70599800;2023-02-24T02:14:54;8.40;99.90
5848;DHT22;8756;49.29324300;8.70599800;2023-02-24T02:17:35;8.30;99.90
5848;DHT22;8756;49.29324300;8.70599800;2023-02-24T02:37:32;8.20;99.90
5848;DHT22;8756;49.29324300;8.70599800;2023-02-24T02:40:10;8.20;99.90
5848;DHT22;8756;49.29324300;8.70599800;2023-02-24T02:45:51;8.30;99.90
5848;DHT22;8756;49.29324300;8.70599800;2023-02-24T02:48:45;8.20;99.90
5848;DHT22;8756;49.29324300;8.70599800;2023-02-24T02:51:31;8.20;99.90
5848;DHT22;8756;49.29324300;8.70599800;2023-02-24T02:56:47;8.20;99.90
5848;DHT22;8756;49.29324300;8.70599800;2023-02-24T02:59:21;8.30;99.90
5848;DHT22;8756;49.29324300;8.70599800;2023-02-24T03:01:51;8.30;99.90
5848;DHT22;8756;49.29324300;8.70599800;2023-02-24T03:04:21;8.30;99.90
5848;DHT22;8756;49.29324300;8.70599800;2023-02-24T03:06:55;8.30;99.90
5848;DHT22;8756;49.29324300;8.70599800;2023-02-24T03:09:31;8.30;99.90
5848;DHT22;8756;49.29324300;8.70599800;2023-02-24T03:12:07;8.30;99.90
5848;DHT22;8756;49.29324300;8.70599800;2023-02-24T03:14:39;8.30;99.90
5848;DHT22;8756;49.29324300;8.70599800;2023-02-24T03:17:14;8.30;99.90
5848;DHT22;8756;49.29324300;8.70599800;2023-02-24T03:19:46;8.30;99.90
5848;DHT22;8756;49.29324300;8.70599800;2023-02-24T03:22:29;8.30;99.90
5848;DHT22;8756;49.29324300;8.70599800;2023-02-24T03:25:00;8.30;99.90
5848;DHT22;8756;49.29324300;8.70599800;2023-02-24T03:27:58;8.30;99.90
5848;DHT22;8756;49.29324300;8.70599800;2023-02-24T03:30:41;8.30;99.90
5848;DHT22;8756;49.29324300;8.70599800;2023-02-24T03:33:24;8.30;99.90
5848;DHT22;8756;49.29324300;8.70599800;2023-02-24T03:35:55;8.30;99.90
5848;DHT22;8756;49.29324300;8.70599800;2023-02-24T03:38:26;8.30;99.90
5848;DHT22;8756;49.29324300;8.70599800;2023-02-24T03:40:55;8.30;99.90
5848;DHT22;8756;49.29324300;8.70599800;2023-02-24T03:43:28;8.20;99.90
5848;DHT22;8756;49.29324300;8.70599800;2023-02-24T03:45:55;8.20;99.90
5848;DHT22;8756;49.29324300;8.70599800;2023-02-24T03:48:22;8.20;99.90
5848;DHT22;8756;49.29324300;8.70599800;2023-02-24T03:50:49;8.20;99.90
5848;DHT22;8756;49.29324300;8.70599800;2023-02-24T03:53:32;8.20;99.90
5848;DHT22;8756;49.29324300;8.70599800;2023-02-24T03:59:33;8.20;99.90
5848;DHT22;8756;49.29324300;8.70599800;2023-02-24T04:02:27;8.20;99.90
5848;DHT22;8756;49.29324300;8.70599800;2023-02-24T04:05:15;8.20;99.90
5848;DHT22;8756;49.29324300;8.70599800;2023-02-24T04:07:56;8.10;99.90
5848;DHT22;8756;49.29324300;8.70599800;2023-02-24T04:10:57;8.10;99.90
5848;DHT22;8756;49.29324300;8.70599800;2023-02-24T04:13:34;8.10;99.90
5848;DHT22;8756;49.29324300;8.70599800;2023-02-24T04:16:30;8.10;99.90
5848;DHT22;8756;49.29324300;8.70599800;2023-02-24T04:19:03;8.10;99.90
5848;DHT22;8756;49.29324300;8.70599800;2023-02-24T04:21:32;8.00;99.90
5848;DHT22;8756;49.29324300;8.70599800;2023-02-24T04:24:01;8.00;99.90
5848;DHT22;8756;49.29324300;8.70599800;2023-02-24T04:26:34;8.00;99.90
5848;DHT22;8756;49.29324300;8.70599800;2023-02-24T04:29:00;8.00;99.90
5848;DHT22;8756;49.29324300;8.70599800;2023-02-24T04:31:30;8.00;99.90
5848;DHT22;8756;49.29324300;8.70599800;2023-02-24T04:33:56;7.90;99.90
5848;DHT22;8756;49.29324300;8.70599800;2023-02-24T04:36:24;8.00;99.90
5848;DHT22;8756;49.29324300;8.70599800;2023-02-24T04:38:50;8.00;99.90
5848;DHT22;8756;49.29324300;8.70599800;2023-02-24T04:41:16;8.00;99.90
5848;DHT22;8756;49.29324300;8.70599800;2023-02-24T04:43:46;8.00;99.90
5848;DHT22;8756;49.29324300;8.70599800;2023-02-24T04:46:13;7.90;99.90
5848;DHT22;8756;49.29324300;8.70599800;2023-02-24T04:48:38;7.90;99.90
5848;DHT22;8756;49.29324300;8.70599800;2023-02-24T04:51:04;7.90;99.90
5848;DHT22;8756;49.29324300;8.70599800;2023-02-24T04:53:31;7.90;99.90
5848;DHT22;8756;49.29324300;8.70599800;2023-02-24T04:56:01;7.90;99.90
5848;DHT22;8756;49.29324300;8.70599800;2023-02-24T04:58:34;7.90;99.90
5848;DHT22;8756;49.29324300;8.70599800;2023-02-24T05:01:06;7.90;99.90
5848;DHT22;8756;49.29324300;8.70599800;2023-02-24T05:03:35;7.90;99.90
5848;DHT22;8756;49.29324300;8.70599800;2023-02-24T05:06:02;7.90;99.90
5848;DHT22;8756;49.29324300;8.70599800;2023-02-24T05:08:30;7.90;99.90
5848;DHT22;8756;49.29324300;8.70599800;2023-02-24T05:10:57;7.90;99.90
5848;DHT22;8756;49.29324300;8.70599800;2023-02-24T05:13:27;7.90;99.90
5848;DHT22;8756;49.29324300;8.70599800;2023-02-24T05:16:06;7.90;99.90
5848;DHT22;8756;49.29324300;8.70599800;2023-02-24T05:18:32;7.90;99.90
5848;DHT22;8756;49.29324300;8.70599800;2023-02-24T05:21:08;7.90;99.90
5848;DHT22;8756;49.29324300;8.70599800;2023-02-24T05:23:55;7.90;99.90
5848;DHT22;8756;49.29324300;8.70599800;2023-02-24T05:26:23;7.90;99.90
5848;DHT22;8756;49.29324300;8.70599800;2023-02-24T05:28:51;7.90;99.90
5848;DHT22;8756;49.29324300;8.70599800;2023-02-24T05:31:25;7.90;99.90
5848;DHT22;8756;49.29324300;8.70599800;2023-02-24T05:34:00;7.80;99.90
5848;DHT22;8756;49.29324300;8.70599800;2023-02-24T05:36:30;7.80;99.90
5848;DHT22;8756;49.29324300;8.70599800;2023-02-24T05:38:58;7.80;99.90
5848;DHT22;8756;49.29324300;8.70599800;2023-02-24T05:41:30;7.80;99.90
5848;DHT22;8756;49.29324300;8.70599800;2023-02-24T05:44:01;7.80;99.90
5848;DHT22;8756;49.29324300;8.70599800;2023-02-24T05:46:33;7.80;99.90
5848;DHT22;8756;49.29324300;8.70599800;2023-02-24T05:49:13;7.80;99.90
5848;DHT22;8756;49.29324300;8.70599800;2023-02-24T05:51:49;7.80;99.90
5848;DHT22;8756;49.29324300;8.70599800;2023-02-24T05:54:27;7.80;99.90
5848;DHT22;8756;49.29324300;8.70599800;2023-02-24T05:56:58;7.80;99.90
5848;DHT22;8756;49.29324300;8.70599800;2023-02-24T05:59:26;7.80;99.90
5848;DHT22;8756;49.29324300;8.70599800;2023-02-24T06:02:01;7.80;99.90
5848;DHT22;8756;49.29324300;8.70599800;2023-02-24T06:04:32;7.90;99.90
5848;DHT22;8756;49.29324300;8.70599800;2023-02-24T06:09:48;7.90;99.90
5848;DHT22;8756;49.29324300;8.70599800;2023-02-24T06:12:23;7.90;99.90
5848;DHT22;8756;49.29324300;8.70599800;2023-02-24T06:14:50;7.90;99.90
5848;DHT22;8756;49.29324300;8.70599800;2023-02-24T06:17:18;7.90;99.90
5848;DHT22;8756;49.29324300;8.70599800;2023-02-24T06:19:47;7.90;99.90
5848;DHT22;8756;49.29324300;8.70599800;2023-02-24T06:22:19;7.90;99.90
5848;DHT22;8756;49.29324300;8.70599800;2023-02-24T06:24:47;8.00;99.90
5848;DHT22;8756;49.29324300;8.70599800;2023-02-24T06:27:16;8.00;99.90
5848;DHT22;8756;49.29324300;8.70599800;2023-02-24T06:29:48;8.00;99.90
5848;DHT22;8756;49.29324300;8.70599800;2023-02-24T06:32:18;7.90;99.90
5848;DHT22;8756;49.29324300;8.70599800;2023-02-24T06:34:48;7.90;99.90
5848;DHT22;8756;49.29324300;8.70599800;2023-02-24T06:37:14;7.90;99.90
5848;DHT22;8756;49.29324300;8.70599800;2023-02-24T06:39:41;7.90;99.90
5848;DHT22;8756;49.29324300;8.70599800;2023-02-24T06:42:08;8.00;99.90
5848;DHT22;8756;49.29324300;8.70599800;2023-02-24T06:44:37;8.00;99.90
5848;DHT22;8756;49.29324300;8.70599800;2023-02-24T06:47:05;7.90;99.90
5848;DHT22;8756;49.29324300;8.70599800;2023-02-24T06:49:32;8.00;99.90
5848;DHT22;8756;49.29324300;8.70599800;2023-02-24T06:51:58;7.90;99.90
5848;DHT22;8756;49.29324300;8.70599800;2023-02-24T06:54:26;8.00;99.90
5848;DHT22;8756;49.29324300;8.70599800;2023-02-24T06:56:57;8.00;99.90
5848;DHT22;8756;49.29324300;8.70599800;2023-02-24T06:59:23;7.90;99.90
5848;DHT22;8756;49.29324300;8.70599800;2023-02-24T07:01:54;8.00;99.90
5848;DHT22;8756;49.29324300;8.70599800;2023-02-24T07:04:21;8.00;99.90
5848;DHT22;8756;49.29324300;8.70599800;2023-02-24T07:06:51;7.90;99.90
5848;DHT22;8756;49.29324300;8.70599800;2023-02-24T07:09:22;7.90;99.90
5848;DHT22;8756;49.29324300;8.70599800;2023-02-24T07:11:51;7.90;99.90
5848;DHT22;8756;49.29324300;8.70599800;2023-02-24T07:14:23;7.90;99.90
5848;DHT22;8756;49.29324300;8.70599800;2023-02-24T07:16:50;7.90;99.90
5848;DHT22;8756;49.29324300;8.70599800;2023-02-24T07:19:20;7.90;99.90
5848;DHT22;8756;49.29324300;8.70599800;2023-02-24T07:21:53;7.90;99.90
5848;DHT22;8756;49.29324300;8.70599800;2023-02-24T07:24:25;7.80;99.90
5848;DHT22;8756;49.29324300;8.70599800;2023-02-24T07:27:04;7.80;99.90
5848;DHT22;8756;49.29324300;8.70599800;2023-02-24T07:29:37;7.70;99.90
5848;DHT22;8756;49.29324300;8.70599800;2023-02-24T07:32:05;7.70;99.90
5848;DHT22;8756;49.29324300;8.70599800;2023-02-24T07:34:33;7.70;99.90
5848;DHT22;8756;49.29324300;8.70599800;2023-02-24T07:37:00;7.70;99.90
5848;DHT22;8756;49.29324300;8.70599800;2023-02-24T07:39:32;7.70;99.90
5848;DHT22;8756;49.29324300;8.70599800;2023-02-24T07:41:59;7.70;99.90
5848;DHT22;8756;49.29324300;8.70599800;2023-02-24T07:44:27;7.70;99.90
5848;DHT22;8756;49.29324300;8.70599800;2023-02-24T07:46:54;7.70;99.90
5848;DHT22;8756;49.29324300;8.70599800;2023-02-24T07:49:22;7.70;99.90
5848;DHT22;8756;49.29324300;8.70599800;2023-02-24T07:51:52;7.80;99.90
5848;DHT22;8756;49.29324300;8.70599800;2023-02-24T07:54:23;7.80;99.90
5848;DHT22;8756;49.29324300;8.70599800;2023-02-24T07:56:50;7.80;99.90
5848;DHT22;8756;49.29324300;8.70599800;2023-02-24T07:59:25;7.80;99.90
5848;DHT22;8756;49.29324300;8.70599800;2023-02-24T08:01:52;7.70;99.90
5848;DHT22;8756;49.29324300;8.70599800;2023-02-24T08:04:26;7.80;99.90
5848;DHT22;8756;49.29324300;8.70599800;2023-02-24T08:06:55;7.80;99.90
5848;DHT22;8756;49.29324300;8.70599800;2023-02-24T08:09:25;7.70;99.90
5848;DHT22;8756;49.29324300;8.70599800;2023-02-24T08:12:23;7.80;99.90
5848;DHT22;8756;49.29324300;8.70599800;2023-02-24T08:14:52;7.80;99.90
5848;DHT22;8756;49.29324300;8.70599800;2023-02-24T08:17:22;7.80;99.90
5848;DHT22;8756;49.29324300;8.70599800;2023-02-24T08:19:51;7.70;99.90
5848;DHT22;8756;49.29324300;8.70599800;2023-02-24T08:22:37;7.70;99.90
5848;DHT22;8756;49.29324300;8.70599800;2023-02-24T08:25:09;7.70;99.90
5848;DHT22;8756;49.29324300;8.70599800;2023-02-24T08:27:43;7.80;99.90
5848;DHT22;8756;49.29324300;8.70599800;2023-02-24T08:30:11;7.80;99.90
5848;DHT22;8756;49.29324300;8.70599800;2023-02-24T08:32:49;7.90;99.90
5848;DHT22;8756;49.29324300;8.70599800;2023-02-24T08:35:27;7.90;99.90
5848;DHT22;8756;49.29324300;8.70599800;2023-02-24T08:38:20;7.90;99.90
5848;DHT22;8756;49.29324300;8.70599800;2023-02-24T08:40:51;7.90;99.90
5848;DHT22;8756;49.29324300;8.70599800;2023-02-24T08:43:31;7.90;99.90
5848;DHT22;8756;49.29324300;8.70599800;2023-02-24T08:48:39;8.00;99.90
5848;DHT22;8756;49.29324300;8.70599800;2023-02-24T08:51:16;7.90;99.90
5848;DHT22;8756;49.29324300;8.70599800;2023-02-24T08:53:48;8.00;99.90
5848;DHT22;8756;49.29324300;8.70599800;2023-02-24T08:56:22;8.00;99.90
5848;DHT22;8756;49.29324300;8.70599800;2023-02-24T08:58:55;8.00;99.90
5848;DHT22;8756;49.29324300;8.70599800;2023-02-24T09:01:29;8.10;99.90
5848;DHT22;8756;49.29324300;8.70599800;2023-02-24T09:04:06;8.00;99.90
5848;DHT22;8756;49.29324300;8.70599800;2023-02-24T09:09:04;8.10;99.90
5848;DHT22;8756;49.29324300;8.70599800;2023-02-24T09:11:51;8.10;99.90
5848;DHT22;8756;49.29324300;8.70599800;2023-02-24T09:14:29;8.10;99.90
5848;DHT22;8756;49.29324300;8.70599800;2023-02-24T09:17:01;8.10;99.90
5848;DHT22;8756;49.29324300;8.70599800;2023-02-24T09:19:44;8.10;99.90
5848;DHT22;8756;49.29324300;8.70599800;2023-02-24T09:22:15;8.10;99.90
5848;DHT22;8756;49.29324300;8.70599800;2023-02-24T09:25:12;8.10;99.90
5848;DHT22;8756;49.29324300;8.70599800;2023-02-24T09:33:34;8.20;99.90
5848;DHT22;8756;49.29324300;8.70599800;2023-02-24T09:36:10;8.20;99.90
5848;DHT22;8756;49.29324300;8.70599800;2023-02-24T09:38:56;8.20;99.90
5848;DHT22;8756;49.29324300;8.70599800;2023-02-24T09:41:30;8.30;99.90
5848;DHT22;8756;49.29324300;8.70599800;2023-02-24T09:47:11;8.30;99.90
5848;DHT22;8756;49.29324300;8.70599800;2023-02-24T09:49:53;8.40;99.90
5848;DHT22;8756;49.29324300;8.70599800;2023-02-24T09:52:30;8.50;99.90
5848;DHT22;8756;49.29324300;8.70599800;2023-02-24T09:55:20;8.50;99.90
5848;DHT22;8756;49.29324300;8.70599800;2023-02-24T09:58:42;8.60;99.90
5848;DHT22;8756;49.29324300;8.70599800;2023-02-24T10:01:35;8.70;99.90
5848;DHT22;8756;49.29324300;8.70599800;2023-02-24T10:07:16;8.80;99.90
5848;DHT22;8756;49.29324300;8.70599800;2023-02-24T10:10:28;8.90;99.90
5848;DHT22;8756;49.29324300;8.70599800;2023-02-24T10:13:11;8.90;99.90
5848;DHT22;8756;49.29324300;8.70599800;2023-02-24T10:15:42;9.00;99.90
5848;DHT22;8756;49.29324300;8.70599800;2023-02-24T10:18:45;9.00;99.90
5848;DHT22;8756;49.29324300;8.70599800;2023-02-24T10:21:56;9.10;99.90
5848;DHT22;8756;49.29324300;8.70599800;2023-02-24T10:24:43;9.10;99.90
5848;DHT22;8756;49.29324300;8.70599800;2023-02-24T10:27:20;9.10;99.90
5848;DHT22;8756;49.29324300;8.70599800;2023-02-24T10:35:24;9.20;99.90
5848;DHT22;8756;49.29324300;8.70599800;2023-02-24T10:37:58;9.20;99.90
5848;DHT22;8756;49.29324300;8.70599800;2023-02-24T10:40:30;9.20;99.90
5848;DHT22;8756;49.29324300;8.70599800;2023-02-24T10:43:18;9.30;99.90
5848;DHT22;8756;49.29324300;8.70599800;2023-02-24T10:45:54;9.30;99.90
5848;DHT22;8756;49.29324300;8.70599800;2023-02-24T10:48:32;9.30;99.90
5848;DHT22;8756;49.29324300;8.70599800;2023-02-24T10:51:14;9.30;99.90
5848;DHT22;8756;49.29324300;8.70599800;2023-02-24T10:53:49;9.30;99.90
5848;DHT22;8756;49.29324300;8.70599800;2023-02-24T10:56:38;9.20;99.90
5848;DHT22;8756;49.29324300;8.70599800;2023-02-24T10:59:15;9.30;99.90
5848;DHT22;8756;49.29324300;8.70599800;2023-02-24T11:02:13;9.20;99.90
5848;DHT22;8756;49.29324300;8.70599800;2023-02-24T11:04:54;9.30;99.90
5848;DHT22;8756;49.29324300;8.70599800;2023-02-24T11:07:23;9.30;99.90
5848;DHT22;8756;49.29324300;8.70599800;2023-02-24T11:10:05;9.30;99.90
5848;DHT22;8756;49.29324300;8.70599800;2023-02-24T11:12:43;9.40;99.90
5848;DHT22;8756;49.29324300;8.70599800;2023-02-24T11:15:41;9.50;99.90
5848;DHT22;8756;49.29324300;8.70599800;2023-02-24T11:18:29;9.50;99.90
5848;DHT22;8756;49.29324300;8.70599800;2023-02-24T11:21:08;9.60;99.90
5848;DHT22;8756;49.29324300;8.70599800;2023-02-24T11:23:45;9.70;99.90
5848;DHT22;8756;49.29324300;8.70599800;2023-02-24T11:26:15;9.70;99.90
5848;DHT22;8756;49.29324300;8.70599800;2023-02-24T11:28:51;9.70;99.90
5848;DHT22;8756;49.29324300;8.70599800;2023-02-24T11:31:35;9.70;99.90
5848;DHT22;8756;49.29324300;8.70599800;2023-02-24T11:34:20;9.70;99.90
5848;DHT22;8756;49.29324300;8.70599800;2023-02-24T11:40:04;9.70;99.90
5848;DHT22;8756;49.29324300;8.70599800;2023-02-24T11:43:04;9.80;99.90
5848;DHT22;8756;49.29324300;8.70599800;2023-02-24T11:45:53;9.80;99.90
5848;DHT22;8756;49.29324300;8.70599800;2023-02-24T11:48:35;9.90;99.90
5848;DHT22;8756;49.29324300;8.70599800;2023-02-24T11:51:21;9.90;99.90
5848;DHT22;8756;49.29324300;8.70599800;2023-02-24T11:53:59;10.00;99.90
5848;DHT22;8756;49.29324300;8.70599800;2023-02-24T11:56:41;10.10;99.90
5848;DHT22;8756;49.29324300;8.70599800;2023-02-24T11:59:43;10.20;99.90
5848;DHT22;8756;49.29324300;8.70599800;2023-02-24T12:02:36;10.30;99.90
5848;DHT22;8756;49.29324300;8.70599800;2023-02-24T12:05:14;10.30;99.90
5848;DHT22;8756;49.29324300;8.70599800;2023-02-24T12:07:55;10.30;99.90
5848;DHT22;8756;49.29324300;8.70599800;2023-02-24T12:10:26;10.40;99.90
5848;DHT22;8756;49.29324300;8.70599800;2023-02-24T12:13:03;10.40;99.90
5848;DHT22;8756;49.29324300;8.70599800;2023-02-24T12:15:38;10.40;99.90
5848;DHT22;8756;49.29324300;8.70599800;2023-02-24T12:21:19;10.40;99.90
5848;DHT22;8756;49.29324300;8.70599800;2023-02-24T12:23:50;10.40;99.90
5848;DHT22;8756;49.29324300;8.70599800;2023-02-24T12:29:40;10.40;99.90
5848;DHT22;8756;49.29324300;8.70599800;2023-02-24T12:38:17;10.40;99.90
5848;DHT22;8756;49.29324300;8.70599800;2023-02-24T12:41:15;10.50;99.90
5848;DHT22;8756;49.29324300;8.70599800;2023-02-24T12:58:12;10.40;99.90
5848;DHT22;8756;49.29324300;8.70599800;2023-02-24T13:00:59;10.40;99.90
5848;DHT22;8756;49.29324300;8.70599800;2023-02-24T13:12:49;10.40;99.90
5848;DHT22;8756;49.29324300;8.70599800;2023-02-24T13:15:26;10.40;99.90
5848;DHT22;8756;49.29324300;8.70599800;2023-02-24T13:17:56;10.50;99.90
5848;DHT22;8756;49.29324300;8.70599800;2023-02-24T13:20:31;10.50;99.90
5848;DHT22;8756;49.29324300;8.70599800;2023-02-24T13:22:58;10.50;99.90
5848;DHT22;8756;49.29324300;8.70599800;2023-02-24T13:25:29;10.60;99.90
5848;DHT22;8756;49.29324300;8.70599800;2023-02-24T13:28:01;10.60;99.90
5848;DHT22;8756;49.29324300;8.70599800;2023-02-24T13:30:35;10.60;99.90
5848;DHT22;8756;49.29324300;8.70599800;2023-02-24T13:33:19;10.50;99.90
5848;DHT22;8756;49.29324300;8.70599800;2023-02-24T13:35:49;10.60;99.90
5848;DHT22;8756;49.29324300;8.70599800;2023-02-24T13:40:51;10.60;99.90
5848;DHT22;8756;49.29324300;8.70599800;2023-02-24T13:43:26;10.60;99.90
5848;DHT22;8756;49.29324300;8.70599800;2023-02-24T13:45:58;10.60;99.90
5848;DHT22;8756;49.29324300;8.70599800;2023-02-24T13:48:52;10.60;99.90
5848;DHT22;8756;49.29324300;8.70599800;2023-02-24T13:56:59;10.60;99.90
5848;DHT22;8756;49.29324300;8.70599800;2023-02-24T13:59:59;10.60;99.90
5848;DHT22;8756;49.29324300;8.70599800;2023-02-24T14:02:47;10.60;99.90
5848;DHT22;8756;49.29324300;8.70599800;2023-02-24T14:05:24;10.60;99.90
5848;DHT22;8756;49.29324300;8.70599800;2023-02-24T14:07:52;10.70;99.90
5848;DHT22;8756;49.29324300;8.70599800;2023-02-24T14:10:25;10.70;99.90
5848;DHT22;8756;49.29324300;8.70599800;2023-02-24T14:13:16;10.70;99.90
5848;DHT22;8756;49.29324300;8.70599800;2023-02-24T14:15:45;10.70;99.90
5848;DHT22;8756;49.29324300;8.70599800;2023-02-24T14:18:23;10.80;99.90
5848;DHT22;8756;49.29324300;8.70599800;2023-02-24T14:20:52;10.80;99.90
5848;DHT22;8756;49.29324300;8.70599800;2023-02-24T14:25:59;10.80;99.90
5848;DHT22;8756;49.29324300;8.70599800;2023-02-24T14:28:29;10.80;99.90
5848;DHT22;8756;49.29324300;8.70599800;2023-02-24T14:30:58;10.80;99.90
5848;DHT22;8756;49.29324300;8.70599800;2023-02-24T14:33:33;10.80;99.90
5848;DHT22;8756;49.29324300;8.70599800;2023-02-24T14:36:02;10.80;99.90
5848;DHT22;8756;49.29324300;8.70599800;2023-02-24T14:38:32;10.80;99.90
5848;DHT22;8756;49.29324300;8.70599800;2023-02-24T14:40:59;10.80;99.90
5848;DHT22;8756;49.29324300;8.70599800;2023-02-24T14:43:46;10.80;99.90
5848;DHT22;8756;49.29324300;8.70599800;2023-02-24T14:46:12;10.80;99.90
5848;DHT22;8756;49.29324300;8.70599800;2023-02-24T14:48:38;10.80;99.90
5848;DHT22;8756;49.29324300;8.70599800;2023-02-24T14:51:10;10.70;99.90
5848;DHT22;8756;49.29324300;8.70599800;2023-02-24T14:53:49;10.70;99.90
5848;DHT22;8756;49.29324300;8.70599800;2023-02-24T14:56:22;10.80;99.90
5848;DHT22;8756;49.29324300;8.70599800;2023-02-24T14:59:12;10.80;99.90
5848;DHT22;8756;49.29324300;8.70599800;2023-02-24T15:01:53;10.80;99.90
5848;DHT22;8756;49.29324300;8.70599800;2023-02-24T15:04:32;10.80;99.90
5848;DHT22;8756;49.29324300;8.70599800;2023-02-24T15:07:05;10.80;99.90
5848;DHT22;8756;49.29324300;8.70599800;2023-02-24T15:09:40;10.80;99.90
5848;DHT22;8756;49.29324300;8.70599800;2023-02-24T15:15:34;10.80;99.90
5848;DHT22;8756;49.29324300;8.70599800;2023-02-24T15:18:09;10.80;99.90
5848;DHT22;8756;49.29324300;8.70599800;2023-02-24T15:21:02;10.80;99.90
5848;DHT22;8756;49.29324300;8.70599800;2023-02-24T15:23:39;10.70;99.90
5848;DHT22;8756;49.29324300;8.70599800;2023-02-24T15:26:05;10.70;99.90
5848;DHT22;8756;49.29324300;8.70599800;2023-02-24T15:28:36;10.70;99.90
5848;DHT22;8756;49.29324300;8.70599800;2023-02-24T15:31:06;10.70;99.90
5848;DHT22;8756;49.29324300;8.70599800;2023-02-24T15:33:40;10.70;99.90
5848;DHT22;8756;49.29324300;8.70599800;2023-02-24T15:36:16;10.60;99.90
5848;DHT22;8756;49.29324300;8.70599800;2023-02-24T15:38:44;10.60;99.90
5848;DHT22;8756;49.29324300;8.70599800;2023-02-24T15:41:11;10.60;99.90
5848;DHT22;8756;49.29324300;8.70599800;2023-02-24T15:43:47;10.60;99.90
5848;DHT22;8756;49.29324300;8.70599800;2023-02-24T15:46:34;10.50;99.90
5848;DHT22;8756;49.29324300;8.70599800;2023-02-24T15:49:00;10.50;99.90
5848;DHT22;8756;49.29324300;8.70599800;2023-02-24T15:51:37;10.50;99.90
5848;DHT22;8756;49.29324300;8.70599800;2023-02-24T15:54:12;10.50;99.90
5848;DHT22;8756;49.29324300;8.70599800;2023-02-24T15:56:42;10.50;99.90
5848;DHT22;8756;49.29324300;8.70599800;2023-02-24T15:59:15;10.40;99.90
5848;DHT22;8756;49.29324300;8.70599800;2023-02-24T16:01:41;10.40;99.90
5848;DHT22;8756;49.29324300;8.70599800;2023-02-24T16:04:07;10.30;99.90
5848;DHT22;8756;49.29324300;8.70599800;2023-02-24T16:06:35;10.30;99.90
5848;DHT22;8756;49.29324300;8.70599800;2023-02-24T16:09:13;10.30;99.90
5848;DHT22;8756;49.29324300;8.70599800;2023-02-24T16:11:42;10.20;99.90
5848;DHT22;8756;49.29324300;8.70599800;2023-02-24T16:14:13;10.20;99.90
5848;DHT22;8756;49.29324300;8.70599800;2023-02-24T16:16:41;10.20;99.90
5848;DHT22;8756;49.29324300;8.70599800;2023-02-24T16:19:08;10.20;99.90
5848;DHT22;8756;49.29324300;8.70599800;2023-02-24T16:21:35;10.10;99.90
5848;DHT22;8756;49.29324300;8.70599800;2023-02-24T16:24:00;10.10;99.90
5848;DHT22;8756;49.29324300;8.70599800;2023-02-24T16:26:26;10.10;99.90